« 定点 富山空港 2020/6/19 fri | トップページ | 定点 富山空港 2020/6/21 sun »

2020/06/20

定点 富山空港 2020/6/20 sat

RJNT 192300Z 01007KT 9999 -SHRA FEW005 SCT015 BKN025 19/16 Q1011

たまたま休みが続いて、ちょい早めに空港。

20200620_rjnt_00ja9690

JA9690 AS332L AKF

昨日整備していたスパビューさんが出発です。

###

 

###

20200620_rjnt_01ja219a

この時期には珍しい北風で、サークリング

20200620_rjnt_02ja219a

320NEO 富山では初撮影

20200620_rjnt_03ja219a

空港の保安車が急いで02エンドへ

20200620_rjnt_04ja219a

いい捻り

20200620_rjnt_05ja219a

20200620_rjnt_06ja219a

ANA313 RJTT-RJNT JA219A A320-271N

20200620_rjnt_07ja219a

トンビさん危機一髪 しばらく大型機が来なかったので、鳥の天下になっています。

20200620_rjnt_08ja219a

これは静かです。

20200620_rjnt_09ja219a

搭乗客は40人ぐらい

20200620_rjnt_10ja01ad

調子が悪いのか、まだいる JA01AD

RJNT 200000Z 01007KT 9999 -SHRA FEW005 SCT015 BKN025 19/15 Q1011

20200620_rjnt_11ja219a

20200620_rjnt_12ja219a

20200620_rjnt_13ja219a

ANA316 RJNT-RJTT JA219A A320-271N

20200620_rjnt_14ja219a

そのうちバードストライク起こりそう

RJNT 200100Z 04005KT 360V070 9999 VCSH FEW005 SCT015 BKN025 20/14 Q1012

20200620_rjnt_15ja17ac

定期便が行ってからドクヘリ事案

20200620_rjnt_16fdp

患者さんは救急車で医師同乗で直接病院へ

20200620_rjnt_17ja17ac

現場に残った要員を回収して

20200620_rjnt_18ja17ac

JA17AC A109SP SAK 富山県ドクターへり

###

 

###

20200620_rjnt_19ja17ac

富大病院へ

RJNT 200200Z 01004KT 350V050 9999 -SHRA FEW005 SCT015 BKN025 20/16 Q1012

20200620_rjnt_20ja17ac

富大病院HP 搬送した救急車が引き上げていきます。

20200620_rjnt_21ja17ac

ドクターが戻ってきて、エンジンスタート

###

 

###

RJNT 200300Z 02007KT 350V060 9999 VCSH FEW005 SCT015 BKN025 20/15 Q1011

20200620_rjnt_22ja6506

JA6506 AS350B3 AKF

午後は、これにて引き上げ。夕方 JA9785 つくば航空が来ました。

 

|

« 定点 富山空港 2020/6/19 fri | トップページ | 定点 富山空港 2020/6/21 sun »

富山空港」カテゴリの記事

場外」カテゴリの記事

警務消防」カテゴリの記事

コメント

コメントを書く



(ウェブ上には掲載しません)


コメントは記事投稿者が公開するまで表示されません。



« 定点 富山空港 2020/6/19 fri | トップページ | 定点 富山空港 2020/6/21 sun »